sensor_id;sensor_type;location;lat;lon;timestamp;P1;durP1;ratioP1;P2;durP2;ratioP2
66175;SDS011;52977;44.816;20.538;2022-08-11T00:00:31;6.40;;;3.30;;
66175;SDS011;52977;44.816;20.538;2022-08-11T00:03:02;4.88;;;2.90;;
66175;SDS011;52977;44.816;20.538;2022-08-11T00:05:30;3.90;;;2.45;;
66175;SDS011;52977;44.816;20.538;2022-08-11T00:07:56;5.05;;;2.15;;
66175;SDS011;52977;44.816;20.538;2022-08-11T00:10:24;5.38;;;2.15;;
66175;SDS011;52977;44.816;20.538;2022-08-11T00:15:26;2.92;;;1.98;;
66175;SDS011;52977;44.816;20.538;2022-08-11T00:18:01;4.95;;;2.38;;
66175;SDS011;52977;44.816;20.538;2022-08-11T00:20:31;3.75;;;2.13;;
66175;SDS011;52977;44.816;20.538;2022-08-11T00:23:03;4.25;;;2.10;;
66175;SDS011;52977;44.816;20.538;2022-08-11T00:25:38;4.55;;;2.28;;
66175;SDS011;52977;44.816;20.538;2022-08-11T00:28:22;8.25;;;2.30;;
66175;SDS011;52977;44.816;20.538;2022-08-11T00:30:52;3.45;;;1.90;;
66175;SDS011;52977;44.816;20.538;2022-08-11T00:33:21;3.85;;;2.10;;
66175;SDS011;52977;44.816;20.538;2022-08-11T00:35:49;3.65;;;2.13;;
66175;SDS011;52977;44.816;20.538;2022-08-11T00:38:16;3.60;;;2.30;;
66175;SDS011;52977;44.816;20.538;2022-08-11T00:41:05;3.33;;;2.00;;
66175;SDS011;52977;44.816;20.538;2022-08-11T00:54:27;4.95;;;2.70;;
66175;SDS011;52977;44.816;20.538;2022-08-11T01:13:35;4.10;;;2.28;;
66175;SDS011;52977;44.816;20.538;2022-08-11T01:25:06;5.05;;;2.20;;
66175;SDS011;52977;44.816;20.538;2022-08-11T02:07:03;6.15;;;2.67;;
66175;SDS011;52977;44.816;20.538;2022-08-11T02:09:42;5.03;;;2.10;;
66175;SDS011;52977;44.816;20.538;2022-08-11T02:18:26;3.20;;;1.90;;
66175;SDS011;52977;44.816;20.538;2022-08-11T02:21:18;4.53;;;2.90;;
66175;SDS011;52977;44.816;20.538;2022-08-11T02:24:15;6.28;;;2.08;;
66175;SDS011;52977;44.816;20.538;2022-08-11T02:26:49;3.88;;;2.10;;
66175;SDS011;52977;44.816;20.538;2022-08-11T02:29:37;4.93;;;2.10;;
66175;SDS011;52977;44.816;20.538;2022-08-11T02:38:23;7.35;;;3.90;;
66175;SDS011;52977;44.816;20.538;2022-08-11T02:41:04;6.75;;;3.80;;
66175;SDS011;52977;44.816;20.538;2022-08-11T02:44:14;4.88;;;2.97;;
66175;SDS011;52977;44.816;20.538;2022-08-11T02:46:50;8.13;;;3.20;;
66175;SDS011;52977;44.816;20.538;2022-08-11T02:54:52;5.60;;;2.60;;
66175;SDS011;52977;44.816;20.538;2022-08-11T02:57:48;6.72;;;2.38;;
66175;SDS011;52977;44.816;20.538;2022-08-11T03:00:19;4.25;;;2.28;;
66175;SDS011;52977;44.816;20.538;2022-08-11T03:08:46;4.80;;;2.20;;
66175;SDS011;52977;44.816;20.538;2022-08-11T03:14:47;3.42;;;2.00;;
66175;SDS011;52977;44.816;20.538;2022-08-11T03:20:26;3.40;;;2.05;;
66175;SDS011;52977;44.816;20.538;2022-08-11T03:25:43;3.65;;;2.25;;
66175;SDS011;52977;44.816;20.538;2022-08-11T03:28:33;6.35;;;2.60;;
66175;SDS011;52977;44.816;20.538;2022-08-11T03:33:49;3.70;;;2.40;;
66175;SDS011;52977;44.816;20.538;2022-08-11T03:47:48;4.28;;;2.35;;
66175;SDS011;52977;44.816;20.538;2022-08-11T04:14:52;5.55;;;2.60;;
66175;SDS011;52977;44.816;20.538;2022-08-11T04:23:55;5.15;;;2.42;;
66175;SDS011;52977;44.816;20.538;2022-08-11T04:34:57;5.25;;;2.65;;
66175;SDS011;52977;44.816;20.538;2022-08-11T04:37:55;4.25;;;2.50;;
66175;SDS011;52977;44.816;20.538;2022-08-11T05:02:14;4.80;;;2.78;;
66175;SDS011;52977;44.816;20.538;2022-08-11T05:04:55;5.15;;;2.50;;
66175;SDS011;52977;44.816;20.538;2022-08-11T05:16:53;4.80;;;2.20;;
66175;SDS011;52977;44.816;20.538;2022-08-11T05:19:47;7.35;;;3.35;;
66175;SDS011;52977;44.816;20.538;2022-08-11T05:22:31;8.95;;;3.40;;
66175;SDS011;52977;44.816;20.538;2022-08-11T05:25:19;9.20;;;4.20;;
66175;SDS011;52977;44.816;20.538;2022-08-11T05:28:11;9.88;;;3.63;;
66175;SDS011;52977;44.816;20.538;2022-08-11T05:31:06;6.70;;;2.90;;
66175;SDS011;52977;44.816;20.538;2022-08-11T05:39:47;4.18;;;2.38;;
66175;SDS011;52977;44.816;20.538;2022-08-11T05:42:38;8.25;;;2.30;;
66175;SDS011;52977;44.816;20.538;2022-08-11T05:45:31;3.53;;;2.10;;
66175;SDS011;52977;44.816;20.538;2022-08-11T05:48:17;4.38;;;2.25;;
66175;SDS011;52977;44.816;20.538;2022-08-11T05:51:03;5.25;;;1.90;;
66175;SDS011;52977;44.816;20.538;2022-08-11T05:53:49;8.68;;;2.85;;
66175;SDS011;52977;44.816;20.538;2022-08-11T05:56:43;4.35;;;2.22;;
66175;SDS011;52977;44.816;20.538;2022-08-11T05:59:15;4.68;;;1.98;;
66175;SDS011;52977;44.816;20.538;2022-08-11T06:01:43;8.07;;;2.55;;
66175;SDS011;52977;44.816;20.538;2022-08-11T06:04:14;7.07;;;3.10;;
66175;SDS011;52977;44.816;20.538;2022-08-11T06:06:59;4.38;;;2.47;;
66175;SDS011;52977;44.816;20.538;2022-08-11T06:09:34;4.82;;;2.17;;
66175;SDS011;52977;44.816;20.538;2022-08-11T06:12:23;7.72;;;2.25;;
66175;SDS011;52977;44.816;20.538;2022-08-11T06:14:52;9.75;;;2.42;;
66175;SDS011;52977;44.816;20.538;2022-08-11T06:17:23;6.03;;;2.38;;
66175;SDS011;52977;44.816;20.538;2022-08-11T06:19:51;3.20;;;1.80;;
66175;SDS011;52977;44.816;20.538;2022-08-11T06:22:36;6.82;;;2.13;;
66175;SDS011;52977;44.816;20.538;2022-08-11T06:25:03;4.63;;;2.22;;
66175;SDS011;52977;44.816;20.538;2022-08-11T06:27:31;6.68;;;2.38;;
66175;SDS011;52977;44.816;20.538;2022-08-11T06:29:59;4.25;;;2.50;;
66175;SDS011;52977;44.816;20.538;2022-08-11T06:32:33;6.50;;;2.25;;
66175;SDS011;52977;44.816;20.538;2022-08-11T06:35:06;6.80;;;2.63;;
66175;SDS011;52977;44.816;20.538;2022-08-11T06:43:01;3.60;;;2.40;;
66175;SDS011;52977;44.816;20.538;2022-08-11T06:48:27;5.70;;;2.42;;
66175;SDS011;52977;44.816;20.538;2022-08-11T06:50:58;7.43;;;2.47;;
66175;SDS011;52977;44.816;20.538;2022-08-11T06:56:05;5.97;;;2.83;;
66175;SDS011;52977;44.816;20.538;2022-08-11T06:58:51;3.97;;;2.28;;
66175;SDS011;52977;44.816;20.538;2022-08-11T07:04:23;6.57;;;2.75;;
66175;SDS011;52977;44.816;20.538;2022-08-11T07:09:54;3.80;;;2.40;;
66175;SDS011;52977;44.816;20.538;2022-08-11T07:13:06;6.90;;;2.10;;
66175;SDS011;52977;44.816;20.538;2022-08-11T07:15:52;5.47;;;2.63;;
66175;SDS011;52977;44.816;20.538;2022-08-11T07:18:28;6.15;;;2.70;;
66175;SDS011;52977;44.816;20.538;2022-08-11T07:21:20;5.38;;;2.83;;
66175;SDS011;52977;44.816;20.538;2022-08-11T07:24:07;4.93;;;2.25;;
66175;SDS011;52977;44.816;20.538;2022-08-11T07:26:58;4.95;;;2.35;;
66175;SDS011;52977;44.816;20.538;2022-08-11T07:29:45;5.72;;;2.75;;
66175;SDS011;52977;44.816;20.538;2022-08-11T07:32:17;5.65;;;2.67;;
66175;SDS011;52977;44.816;20.538;2022-08-11T07:34:49;5.68;;;2.45;;
66175;SDS011;52977;44.816;20.538;2022-08-11T07:37:19;7.00;;;2.72;;
66175;SDS011;52977;44.816;20.538;2022-08-11T07:39:49;11.48;;;2.75;;
66175;SDS011;52977;44.816;20.538;2022-08-11T07:42:17;5.38;;;2.70;;
66175;SDS011;52977;44.816;20.538;2022-08-11T07:44:46;5.63;;;2.63;;
66175;SDS011;52977;44.816;20.538;2022-08-11T07:47:31;6.65;;;2.60;;
66175;SDS011;52977;44.816;20.538;2022-08-11T07:50:19;4.68;;;2.38;;
66175;SDS011;52977;44.816;20.538;2022-08-11T07:53:03;7.18;;;3.00;;
66175;SDS011;52977;44.816;20.538;2022-08-11T07:55:30;10.55;;;3.17;;
66175;SDS011;52977;44.816;20.538;2022-08-11T07:57:57;7.35;;;2.63;;
66175;SDS011;52977;44.816;20.538;2022-08-11T08:00:43;10.65;;;5.18;;
66175;SDS011;52977;44.816;20.538;2022-08-11T08:03:33;7.13;;;2.60;;
66175;SDS011;52977;44.816;20.538;2022-08-11T08:06:18;5.15;;;2.30;;
66175;SDS011;52977;44.816;20.538;2022-08-11T08:09:03;6.47;;;1.90;;
66175;SDS011;52977;44.816;20.538;2022-08-11T08:11:49;3.30;;;1.90;;
66175;SDS011;52977;44.816;20.538;2022-08-11T08:14:33;4.97;;;2.42;;
66175;SDS011;52977;44.816;20.538;2022-08-11T08:17:19;3.65;;;2.08;;
66175;SDS011;52977;44.816;20.538;2022-08-11T08:20:05;12.02;;;5.53;;
66175;SDS011;52977;44.816;20.538;2022-08-11T08:22:35;5.13;;;2.80;;
66175;SDS011;52977;44.816;20.538;2022-08-11T08:25:01;6.18;;;2.80;;
66175;SDS011;52977;44.816;20.538;2022-08-11T08:27:28;5.30;;;2.55;;
66175;SDS011;52977;44.816;20.538;2022-08-11T08:29:54;5.32;;;2.38;;
66175;SDS011;52977;44.816;20.538;2022-08-11T08:32:40;5.78;;;2.30;;
66175;SDS011;52977;44.816;20.538;2022-08-11T08:35:09;5.53;;;2.40;;
66175;SDS011;52977;44.816;20.538;2022-08-11T08:37:35;6.25;;;2.78;;
66175;SDS011;52977;44.816;20.538;2022-08-11T08:40:01;10.00;;;4.35;;
66175;SDS011;52977;44.816;20.538;2022-08-11T08:42:29;4.68;;;2.53;;
66175;SDS011;52977;44.816;20.538;2022-08-11T08:44:58;5.13;;;2.40;;
66175;SDS011;52977;44.816;20.538;2022-08-11T08:47:29;5.68;;;2.47;;
66175;SDS011;52977;44.816;20.538;2022-08-11T08:50:01;6.93;;;3.03;;
66175;SDS011;52977;44.816;20.538;2022-08-11T08:52:33;8.80;;;4.63;;
66175;SDS011;52977;44.816;20.538;2022-08-11T08:55:05;11.27;;;4.90;;
66175;SDS011;52977;44.816;20.538;2022-08-11T08:57:32;6.15;;;3.30;;
66175;SDS011;52977;44.816;20.538;2022-08-11T09:00:00;6.00;;;2.47;;
66175;SDS011;52977;44.816;20.538;2022-08-11T09:02:28;4.90;;;2.40;;
66175;SDS011;52977;44.816;20.538;2022-08-11T09:04:54;4.65;;;2.22;;
66175;SDS011;52977;44.816;20.538;2022-08-11T09:07:21;3.22;;;2.00;;
66175;SDS011;52977;44.816;20.538;2022-08-11T09:09:51;4.68;;;2.35;;
66175;SDS011;52977;44.816;20.538;2022-08-11T09:12:20;3.40;;;2.00;;
66175;SDS011;52977;44.816;20.538;2022-08-11T09:14:51;4.97;;;1.98;;
66175;SDS011;52977;44.816;20.538;2022-08-11T09:17:32;4.30;;;1.83;;
66175;SDS011;52977;44.816;20.538;2022-08-11T09:20:03;5.40;;;1.98;;
66175;SDS011;52977;44.816;20.538;2022-08-11T09:25:18;7.55;;;2.42;;
66175;SDS011;52977;44.816;20.538;2022-08-11T09:28:04;6.25;;;2.00;;
66175;SDS011;52977;44.816;20.538;2022-08-11T09:30:31;5.25;;;2.40;;
66175;SDS011;52977;44.816;20.538;2022-08-11T09:32:58;5.55;;;2.08;;
66175;SDS011;52977;44.816;20.538;2022-08-11T09:35:26;3.60;;;2.00;;
66175;SDS011;52977;44.816;20.538;2022-08-11T09:37:53;4.55;;;2.08;;
66175;SDS011;52977;44.816;20.538;2022-08-11T09:40:40;4.35;;;2.22;;
66175;SDS011;52977;44.816;20.538;2022-08-11T09:43:09;3.60;;;2.03;;
66175;SDS011;52977;44.816;20.538;2022-08-11T09:45:56;4.38;;;2.28;;
66175;SDS011;52977;44.816;20.538;2022-08-11T09:48:25;4.82;;;2.13;;
66175;SDS011;52977;44.816;20.538;2022-08-11T09:50:54;4.13;;;1.98;;
66175;SDS011;52977;44.816;20.538;2022-08-11T09:53:22;3.30;;;1.90;;
66175;SDS011;52977;44.816;20.538;2022-08-11T09:55:50;3.83;;;2.30;;
66175;SDS011;52977;44.816;20.538;2022-08-11T09:58:17;4.15;;;2.30;;
66175;SDS011;52977;44.816;20.538;2022-08-11T10:00:45;4.00;;;2.08;;
66175;SDS011;52977;44.816;20.538;2022-08-11T10:03:17;3.47;;;2.13;;
66175;SDS011;52977;44.816;20.538;2022-08-11T10:05:46;6.63;;;2.78;;
66175;SDS011;52977;44.816;20.538;2022-08-11T10:08:33;5.70;;;2.33;;
66175;SDS011;52977;44.816;20.538;2022-08-11T10:11:03;4.47;;;2.47;;
66175;SDS011;52977;44.816;20.538;2022-08-11T10:13:31;4.63;;;2.60;;
66175;SDS011;52977;44.816;20.538;2022-08-11T10:16:02;5.13;;;2.55;;
66175;SDS011;52977;44.816;20.538;2022-08-11T10:18:33;3.65;;;2.55;;
66175;SDS011;52977;44.816;20.538;2022-08-11T10:23:52;4.50;;;2.80;;
66175;SDS011;52977;44.816;20.538;2022-08-11T10:26:38;4.53;;;2.60;;
66175;SDS011;52977;44.816;20.538;2022-08-11T10:32:10;5.07;;;3.30;;
66175;SDS011;52977;44.816;20.538;2022-08-11T10:34:58;6.38;;;3.35;;
66175;SDS011;52977;44.816;20.538;2022-08-11T10:37:26;6.63;;;3.45;;
66175;SDS011;52977;44.816;20.538;2022-08-11T10:39:58;9.02;;;3.33;;
66175;SDS011;52977;44.816;20.538;2022-08-11T10:42:25;7.20;;;3.00;;
66175;SDS011;52977;44.816;20.538;2022-08-11T10:45:09;5.28;;;3.30;;
66175;SDS011;52977;44.816;20.538;2022-08-11T10:47:54;7.22;;;3.30;;
66175;SDS011;52977;44.816;20.538;2022-08-11T10:50:22;4.43;;;3.10;;
66175;SDS011;52977;44.816;20.538;2022-08-11T10:53:07;4.88;;;3.25;;
66175;SDS011;52977;44.816;20.538;2022-08-11T10:55:52;5.43;;;3.40;;
66175;SDS011;52977;44.816;20.538;2022-08-11T10:58:37;6.10;;;3.70;;
66175;SDS011;52977;44.816;20.538;2022-08-11T11:03:54;7.03;;;3.40;;
66175;SDS011;52977;44.816;20.538;2022-08-11T11:09:02;6.05;;;3.67;;
66175;SDS011;52977;44.816;20.538;2022-08-11T11:11:38;8.70;;;4.03;;
66175;SDS011;52977;44.816;20.538;2022-08-11T11:14:29;5.57;;;3.83;;
66175;SDS011;52977;44.816;20.538;2022-08-11T11:17:18;5.10;;;3.60;;
66175;SDS011;52977;44.816;20.538;2022-08-11T11:20:11;6.28;;;4.00;;
66175;SDS011;52977;44.816;20.538;2022-08-11T11:22:41;9.27;;;4.00;;
66175;SDS011;52977;44.816;20.538;2022-08-11T11:26:04;5.78;;;3.83;;
66175;SDS011;52977;44.816;20.538;2022-08-11T11:34:35;10.32;;;6.15;;
66175;SDS011;52977;44.816;20.538;2022-08-11T11:37:11;10.60;;;7.03;;
66175;SDS011;52977;44.816;20.538;2022-08-11T11:39:40;8.02;;;6.13;;
66175;SDS011;52977;44.816;20.538;2022-08-11T11:42:07;11.40;;;6.70;;
66175;SDS011;52977;44.816;20.538;2022-08-11T11:44:37;8.88;;;6.10;;
66175;SDS011;52977;44.816;20.538;2022-08-11T11:47:04;8.47;;;5.03;;
66175;SDS011;52977;44.816;20.538;2022-08-11T11:49:31;6.72;;;3.85;;
66175;SDS011;52977;44.816;20.538;2022-08-11T11:51:59;7.25;;;4.15;;
66175;SDS011;52977;44.816;20.538;2022-08-11T11:54:27;6.43;;;3.60;;
66175;SDS011;52977;44.816;20.538;2022-08-11T11:56:56;4.72;;;3.35;;
66175;SDS011;52977;44.816;20.538;2022-08-11T11:59:43;7.05;;;3.80;;
66175;SDS011;52977;44.816;20.538;2022-08-11T12:02:35;6.82;;;3.45;;
66175;SDS011;52977;44.816;20.538;2022-08-11T12:05:01;10.55;;;5.15;;
66175;SDS011;52977;44.816;20.538;2022-08-11T12:07:31;10.15;;;4.80;;
66175;SDS011;52977;44.816;20.538;2022-08-11T12:10:16;8.40;;;4.70;;
66175;SDS011;52977;44.816;20.538;2022-08-11T12:12:42;4.97;;;3.15;;
66175;SDS011;52977;44.816;20.538;2022-08-11T12:15:28;9.98;;;5.03;;
66175;SDS011;52977;44.816;20.538;2022-08-11T12:17:55;9.15;;;3.60;;
66175;SDS011;52977;44.816;20.538;2022-08-11T12:20:21;5.93;;;3.92;;
66175;SDS011;52977;44.816;20.538;2022-08-11T12:22:48;6.53;;;3.25;;
66175;SDS011;52977;44.816;20.538;2022-08-11T12:25:33;7.07;;;3.60;;
66175;SDS011;52977;44.816;20.538;2022-08-11T12:28:18;7.55;;;3.97;;
66175;SDS011;52977;44.816;20.538;2022-08-11T12:30:47;6.72;;;3.90;;
66175;SDS011;52977;44.816;20.538;2022-08-11T12:33:15;9.40;;;4.15;;
66175;SDS011;52977;44.816;20.538;2022-08-11T12:35:42;7.00;;;3.72;;
66175;SDS011;52977;44.816;20.538;2022-08-11T12:38:08;4.88;;;3.03;;
66175;SDS011;52977;44.816;20.538;2022-08-11T12:40:34;5.15;;;3.17;;
66175;SDS011;52977;44.816;20.538;2022-08-11T12:43:21;6.05;;;3.17;;
66175;SDS011;52977;44.816;20.538;2022-08-11T12:46:28;8.25;;;4.32;;
66175;SDS011;52977;44.816;20.538;2022-08-11T12:48:57;6.95;;;4.38;;
66175;SDS011;52977;44.816;20.538;2022-08-11T12:51:46;5.82;;;3.00;;
66175;SDS011;52977;44.816;20.538;2022-08-11T12:56:57;6.13;;;3.28;;
66175;SDS011;52977;44.816;20.538;2022-08-11T12:59:44;3.63;;;2.55;;
66175;SDS011;52977;44.816;20.538;2022-08-11T13:02:29;7.57;;;2.88;;
66175;SDS011;52977;44.816;20.538;2022-08-11T13:05:14;5.45;;;3.97;;
66175;SDS011;52977;44.816;20.538;2022-08-11T13:07:41;5.47;;;3.67;;
66175;SDS011;52977;44.816;20.538;2022-08-11T13:10:09;6.03;;;4.15;;
66175;SDS011;52977;44.816;20.538;2022-08-11T13:12:36;8.07;;;4.30;;
66175;SDS011;52977;44.816;20.538;2022-08-11T13:15:13;7.97;;;4.28;;
66175;SDS011;52977;44.816;20.538;2022-08-11T13:17:45;8.73;;;4.00;;
66175;SDS011;52977;44.816;20.538;2022-08-11T13:20:15;11.75;;;7.90;;
66175;SDS011;52977;44.816;20.538;2022-08-11T13:22:47;7.68;;;4.22;;
66175;SDS011;52977;44.816;20.538;2022-08-11T13:25:20;6.55;;;4.20;;
66175;SDS011;52977;44.816;20.538;2022-08-11T13:27:48;8.10;;;4.13;;
66175;SDS011;52977;44.816;20.538;2022-08-11T13:30:16;8.95;;;4.18;;
66175;SDS011;52977;44.816;20.538;2022-08-11T13:33:02;9.23;;;4.80;;
66175;SDS011;52977;44.816;20.538;2022-08-11T13:35:29;10.15;;;5.20;;
66175;SDS011;52977;44.816;20.538;2022-08-11T13:37:56;7.32;;;4.65;;
66175;SDS011;52977;44.816;20.538;2022-08-11T13:40:25;8.63;;;5.72;;
66175;SDS011;52977;44.816;20.538;2022-08-11T13:42:52;8.80;;;6.20;;
66175;SDS011;52977;44.816;20.538;2022-08-11T13:45:18;10.75;;;5.85;;
66175;SDS011;52977;44.816;20.538;2022-08-11T13:47:47;12.23;;;7.70;;
66175;SDS011;52977;44.816;20.538;2022-08-11T13:50:14;15.68;;;9.10;;
66175;SDS011;52977;44.816;20.538;2022-08-11T13:52:41;13.75;;;9.27;;
66175;SDS011;52977;44.816;20.538;2022-08-11T13:55:08;13.98;;;8.98;;
66175;SDS011;52977;44.816;20.538;2022-08-11T13:57:47;13.57;;;9.40;;
66175;SDS011;52977;44.816;20.538;2022-08-11T14:00:16;12.35;;;8.73;;
66175;SDS011;52977;44.816;20.538;2022-08-11T14:02:43;13.50;;;9.10;;
66175;SDS011;52977;44.816;20.538;2022-08-11T14:07:48;12.02;;;8.02;;
66175;SDS011;52977;44.816;20.538;2022-08-11T14:10:20;12.60;;;7.30;;
66175;SDS011;52977;44.816;20.538;2022-08-11T14:12:56;10.52;;;6.88;;
66175;SDS011;52977;44.816;20.538;2022-08-11T14:15:43;9.65;;;6.00;;
66175;SDS011;52977;44.816;20.538;2022-08-11T14:18:18;9.75;;;6.25;;
66175;SDS011;52977;44.816;20.538;2022-08-11T14:20:53;7.68;;;4.90;;
66175;SDS011;52977;44.816;20.538;2022-08-11T14:23:40;8.02;;;5.07;;
66175;SDS011;52977;44.816;20.538;2022-08-11T14:26:09;7.65;;;4.93;;
66175;SDS011;52977;44.816;20.538;2022-08-11T14:28:47;7.30;;;5.18;;
66175;SDS011;52977;44.816;20.538;2022-08-11T14:31:17;8.43;;;5.25;;
66175;SDS011;52977;44.816;20.538;2022-08-11T14:33:43;8.32;;;5.22;;
66175;SDS011;52977;44.816;20.538;2022-08-11T14:36:10;8.98;;;5.15;;
66175;SDS011;52977;44.816;20.538;2022-08-11T14:38:36;8.50;;;5.13;;
66175;SDS011;52977;44.816;20.538;2022-08-11T14:41:04;8.45;;;4.60;;
66175;SDS011;52977;44.816;20.538;2022-08-11T14:43:51;9.15;;;4.97;;
66175;SDS011;52977;44.816;20.538;2022-08-11T14:46:57;9.15;;;4.47;;
66175;SDS011;52977;44.816;20.538;2022-08-11T14:49:36;7.85;;;4.60;;
66175;SDS011;52977;44.816;20.538;2022-08-11T14:52:05;8.40;;;4.50;;
66175;SDS011;52977;44.816;20.538;2022-08-11T14:54:33;7.82;;;4.20;;
66175;SDS011;52977;44.816;20.538;2022-08-11T14:57:19;7.38;;;4.00;;
66175;SDS011;52977;44.816;20.538;2022-08-11T14:59:47;7.03;;;4.28;;
66175;SDS011;52977;44.816;20.538;2022-08-11T15:02:14;7.35;;;4.32;;
66175;SDS011;52977;44.816;20.538;2022-08-11T15:04:59;7.60;;;3.70;;
66175;SDS011;52977;44.816;20.538;2022-08-11T15:07:27;7.97;;;4.00;;
66175;SDS011;52977;44.816;20.538;2022-08-11T15:09:57;9.63;;;3.90;;
66175;SDS011;52977;44.816;20.538;2022-08-11T15:12:24;6.43;;;4.05;;
66175;SDS011;52977;44.816;20.538;2022-08-11T15:14:49;7.28;;;4.68;;
66175;SDS011;52977;44.816;20.538;2022-08-11T15:17:34;8.90;;;5.43;;
66175;SDS011;52977;44.816;20.538;2022-08-11T15:20:03;10.68;;;4.75;;
66175;SDS011;52977;44.816;20.538;2022-08-11T15:22:50;9.43;;;5.70;;
66175;SDS011;52977;44.816;20.538;2022-08-11T15:25:34;8.93;;;5.43;;
66175;SDS011;52977;44.816;20.538;2022-08-11T15:28:01;8.63;;;4.53;;
66175;SDS011;52977;44.816;20.538;2022-08-11T15:30:46;5.47;;;3.53;;
66175;SDS011;52977;44.816;20.538;2022-08-11T15:33:37;6.93;;;3.15;;
66175;SDS011;52977;44.816;20.538;2022-08-11T15:36:23;4.55;;;3.00;;
66175;SDS011;52977;44.816;20.538;2022-08-11T15:39:31;11.13;;;4.57;;
66175;SDS011;52977;44.816;20.538;2022-08-11T15:42:22;9.15;;;3.50;;
66175;SDS011;52977;44.816;20.538;2022-08-11T15:45:06;5.38;;;3.28;;
66175;SDS011;52977;44.816;20.538;2022-08-11T15:47:58;8.85;;;4.07;;
66175;SDS011;52977;44.816;20.538;2022-08-11T15:50:32;11.45;;;6.40;;
66175;SDS011;52977;44.816;20.538;2022-08-11T15:53:06;8.13;;;5.03;;
66175;SDS011;52977;44.816;20.538;2022-08-11T15:55:36;10.68;;;5.93;;
66175;SDS011;52977;44.816;20.538;2022-08-11T15:58:03;8.00;;;4.93;;
66175;SDS011;52977;44.816;20.538;2022-08-11T16:00:50;8.02;;;3.88;;
66175;SDS011;52977;44.816;20.538;2022-08-11T16:09:36;6.72;;;3.35;;
66175;SDS011;52977;44.816;20.538;2022-08-11T16:12:10;7.07;;;3.38;;
66175;SDS011;52977;44.816;20.538;2022-08-11T16:14:43;5.57;;;3.38;;
66175;SDS011;52977;44.816;20.538;2022-08-11T16:17:30;6.38;;;3.40;;
66175;SDS011;52977;44.816;20.538;2022-08-11T16:19:59;7.75;;;3.88;;
66175;SDS011;52977;44.816;20.538;2022-08-11T16:22:30;6.63;;;3.50;;
66175;SDS011;52977;44.816;20.538;2022-08-11T16:25:04;8.05;;;3.72;;
66175;SDS011;52977;44.816;20.538;2022-08-11T16:27:48;6.13;;;3.03;;
66175;SDS011;52977;44.816;20.538;2022-08-11T16:30:19;5.05;;;2.75;;
66175;SDS011;52977;44.816;20.538;2022-08-11T16:32:47;4.55;;;2.10;;
66175;SDS011;52977;44.816;20.538;2022-08-11T16:35:19;4.28;;;2.60;;
66175;SDS011;52977;44.816;20.538;2022-08-11T16:38:06;5.35;;;2.50;;
66175;SDS011;52977;44.816;20.538;2022-08-11T16:40:52;3.95;;;2.05;;
66175;SDS011;52977;44.816;20.538;2022-08-11T16:43:21;6.65;;;2.28;;
66175;SDS011;52977;44.816;20.538;2022-08-11T16:46:07;4.75;;;2.20;;
66175;SDS011;52977;44.816;20.538;2022-08-11T16:48:52;6.90;;;2.20;;
66175;SDS011;52977;44.816;20.538;2022-08-11T16:51:19;5.85;;;2.83;;
66175;SDS011;52977;44.816;20.538;2022-08-11T16:53:45;10.18;;;4.53;;
66175;SDS011;52977;44.816;20.538;2022-08-11T16:56:17;3.03;;;1.63;;
66175;SDS011;52977;44.816;20.538;2022-08-11T16:58:45;3.20;;;1.90;;
66175;SDS011;52977;44.816;20.538;2022-08-11T17:01:37;5.15;;;2.08;;
66175;SDS011;52977;44.816;20.538;2022-08-11T17:04:15;4.38;;;2.08;;
66175;SDS011;52977;44.816;20.538;2022-08-11T17:09:48;3.58;;;1.83;;
66175;SDS011;52977;44.816;20.538;2022-08-11T17:12:35;4.13;;;2.17;;
66175;SDS011;52977;44.816;20.538;2022-08-11T17:15:24;4.15;;;2.22;;
66175;SDS011;52977;44.816;20.538;2022-08-11T17:18:11;6.18;;;2.38;;
66175;SDS011;52977;44.816;20.538;2022-08-11T17:21:00;3.42;;;2.00;;
66175;SDS011;52977;44.816;20.538;2022-08-11T17:23:28;3.92;;;2.30;;
66175;SDS011;52977;44.816;20.538;2022-08-11T17:26:17;7.93;;;2.10;;
66175;SDS011;52977;44.816;20.538;2022-08-11T17:28:47;6.55;;;1.88;;
66175;SDS011;52977;44.816;20.538;2022-08-11T17:31:18;3.53;;;1.88;;
66175;SDS011;52977;44.816;20.538;2022-08-11T17:34:05;3.72;;;2.00;;
66175;SDS011;52977;44.816;20.538;2022-08-11T17:36:52;4.30;;;2.08;;
66175;SDS011;52977;44.816;20.538;2022-08-11T17:39:19;4.10;;;2.40;;
66175;SDS011;52977;44.816;20.538;2022-08-11T17:41:47;4.32;;;2.38;;
66175;SDS011;52977;44.816;20.538;2022-08-11T17:44:33;4.22;;;2.00;;
66175;SDS011;52977;44.816;20.538;2022-08-11T17:47:18;4.97;;;2.40;;
66175;SDS011;52977;44.816;20.538;2022-08-11T17:50:03;5.72;;;2.38;;
66175;SDS011;52977;44.816;20.538;2022-08-11T17:52:31;4.75;;;2.13;;
66175;SDS011;52977;44.816;20.538;2022-08-11T17:55:16;4.50;;;2.50;;
66175;SDS011;52977;44.816;20.538;2022-08-11T17:58:01;6.38;;;2.45;;
66175;SDS011;52977;44.816;20.538;2022-08-11T18:00:47;6.78;;;2.63;;
66175;SDS011;52977;44.816;20.538;2022-08-11T18:03:15;5.88;;;2.60;;
66175;SDS011;52977;44.816;20.538;2022-08-11T18:05:56;11.75;;;2.70;;
66175;SDS011;52977;44.816;20.538;2022-08-11T18:08:25;4.50;;;2.22;;
66175;SDS011;52977;44.816;20.538;2022-08-11T18:11:11;5.60;;;2.55;;
66175;SDS011;52977;44.816;20.538;2022-08-11T18:13:57;4.43;;;2.20;;
66175;SDS011;52977;44.816;20.538;2022-08-11T18:16:43;6.93;;;2.50;;
66175;SDS011;52977;44.816;20.538;2022-08-11T18:19:28;5.07;;;2.20;;
66175;SDS011;52977;44.816;20.538;2022-08-11T18:22:17;4.65;;;2.10;;
66175;SDS011;52977;44.816;20.538;2022-08-11T18:25:08;9.32;;;2.33;;
66175;SDS011;52977;44.816;20.538;2022-08-11T18:27:55;6.05;;;2.10;;
66175;SDS011;52977;44.816;20.538;2022-08-11T18:30:43;4.40;;;2.00;;
66175;SDS011;52977;44.816;20.538;2022-08-11T18:33:40;5.82;;;2.13;;
66175;SDS011;52977;44.816;20.538;2022-08-11T18:36:30;5.20;;;2.30;;
66175;SDS011;52977;44.816;20.538;2022-08-11T18:39:18;7.33;;;2.87;;
66175;SDS011;52977;44.816;20.538;2022-08-11T18:42:07;6.97;;;2.95;;
66175;SDS011;52977;44.816;20.538;2022-08-11T18:44:57;6.32;;;3.22;;
66175;SDS011;52977;44.816;20.538;2022-08-11T18:47:45;9.00;;;2.85;;
66175;SDS011;52977;44.816;20.538;2022-08-11T18:50:32;9.30;;;3.35;;
66175;SDS011;52977;44.816;20.538;2022-08-11T18:53:19;6.03;;;2.78;;
66175;SDS011;52977;44.816;20.538;2022-08-11T18:56:05;6.63;;;2.60;;
66175;SDS011;52977;44.816;20.538;2022-08-11T18:58:49;7.18;;;2.80;;
66175;SDS011;52977;44.816;20.538;2022-08-11T19:01:35;6.45;;;2.75;;
66175;SDS011;52977;44.816;20.538;2022-08-11T19:04:21;8.40;;;2.90;;
66175;SDS011;52977;44.816;20.538;2022-08-11T19:07:07;6.72;;;3.00;;
66175;SDS011;52977;44.816;20.538;2022-08-11T19:09:55;9.80;;;2.70;;
66175;SDS011;52977;44.816;20.538;2022-08-11T19:12:41;5.60;;;2.85;;
66175;SDS011;52977;44.816;20.538;2022-08-11T19:15:28;8.48;;;4.13;;
66175;SDS011;52977;44.816;20.538;2022-08-11T19:18:14;6.72;;;3.10;;
66175;SDS011;52977;44.816;20.538;2022-08-11T19:21:02;7.28;;;2.42;;
66175;SDS011;52977;44.816;20.538;2022-08-11T19:23:49;3.95;;;2.05;;
66175;SDS011;52977;44.816;20.538;2022-08-11T19:26:36;6.85;;;2.47;;
66175;SDS011;52977;44.816;20.538;2022-08-11T19:29:21;6.45;;;2.85;;
66175;SDS011;52977;44.816;20.538;2022-08-11T19:32:10;4.85;;;2.40;;
66175;SDS011;52977;44.816;20.538;2022-08-11T19:34:55;8.38;;;2.53;;
66175;SDS011;52977;44.816;20.538;2022-08-11T19:37:40;6.15;;;2.45;;
66175;SDS011;52977;44.816;20.538;2022-08-11T19:40:26;4.25;;;2.00;;
66175;SDS011;52977;44.816;20.538;2022-08-11T19:43:12;4.72;;;2.15;;
66175;SDS011;52977;44.816;20.538;2022-08-11T19:45:58;5.38;;;2.28;;